createdAt,value
2022-11-29T00:01:34.165Z,28.15
2022-11-29T00:04:01.513Z,33.65
2022-11-29T00:06:31.257Z,30.13
2022-11-29T00:09:00.352Z,31.63
2022-11-29T00:11:49.204Z,29.85
2022-11-29T00:14:18.306Z,38.88
2022-11-29T00:16:45.206Z,30.13
2022-11-29T00:19:13.313Z,27.20
2022-11-29T00:21:39.965Z,29.80
2022-11-29T00:24:10.111Z,26.73
2022-11-29T00:26:37.227Z,29.92
2022-11-29T00:29:04.733Z,27.98
2022-11-29T00:31:32.785Z,32.40
2022-11-29T00:34:01.954Z,27.80
2022-11-29T00:36:28.515Z,29.88
2022-11-29T00:38:55.050Z,32.70
2022-11-29T00:41:21.761Z,31.40
2022-11-29T00:43:48.373Z,32.20
2022-11-29T00:46:15.437Z,31.08
2022-11-29T00:48:44.227Z,28.75
2022-11-29T00:51:11.182Z,30.88
2022-11-29T00:53:40.780Z,28.67
2022-11-29T00:56:08.379Z,26.83
2022-11-29T00:58:38.964Z,27.50
2022-11-29T01:01:05.737Z,28.90
2022-11-29T01:03:33.104Z,31.30
2022-11-29T01:06:06.424Z,31.90
2022-11-29T01:08:33.074Z,33.90
2022-11-29T01:11:14.090Z,46.05
2022-11-29T01:13:40.878Z,29.20
2022-11-29T01:16:07.932Z,31.90
2022-11-29T01:18:35.185Z,60.72
2022-11-29T01:21:08.749Z,39.13
2022-11-29T01:23:35.937Z,45.13
2022-11-29T01:26:06.536Z,52.78
2022-11-29T01:28:34.190Z,41.47
2022-11-29T01:31:13.235Z,50.75
2022-11-29T01:33:42.522Z,49.88
2022-11-29T01:36:13.196Z,63.00
2022-11-29T01:38:40.200Z,42.13
2022-11-29T01:41:13.810Z,59.47
2022-11-29T01:44:02.766Z,39.00
2022-11-29T01:46:38.403Z,46.05
2022-11-29T01:49:15.274Z,76.20
2022-11-29T01:51:45.866Z,87.05
2022-11-29T01:54:16.583Z,52.00
2022-11-29T01:56:49.428Z,36.50
2022-11-29T01:59:23.349Z,28.80
2022-11-29T02:01:50.022Z,39.25
2022-11-29T02:04:18.587Z,34.80
2022-11-29T02:06:45.995Z,35.63
2022-11-29T02:09:20.656Z,37.97
2022-11-29T02:11:55.175Z,35.88
2022-11-29T02:15:06.802Z,34.85
2022-11-29T02:17:42.351Z,36.40
2022-11-29T02:20:27.651Z,31.88
2022-11-29T02:23:15.818Z,37.38
2022-11-29T02:26:09.843Z,63.35
2022-11-29T02:29:04.545Z,126.38
2022-11-29T02:32:08.813Z,64.45
2022-11-29T02:34:44.816Z,55.58
2022-11-29T02:37:23.720Z,61.17
2022-11-29T02:40:00.729Z,53.22
2022-11-29T02:43:04.803Z,74.22
2022-11-29T02:45:56.890Z,133.98
2022-11-29T02:48:38.546Z,269.15
2022-11-29T02:51:13.916Z,167.88
2022-11-29T02:53:58.229Z,118.75
2022-11-29T02:56:42.875Z,148.75
2022-11-29T02:59:47.006Z,135.20
2022-11-29T03:02:32.399Z,108.72
2022-11-29T03:05:05.659Z,60.20
2022-11-29T03:07:50.467Z,119.80
2022-11-29T03:10:29.203Z,81.00
2022-11-29T03:12:59.008Z,57.90
2022-11-29T03:15:34.565Z,66.25
2022-11-29T03:18:34.009Z,72.85
2022-11-29T03:21:19.369Z,62.85
2022-11-29T03:23:53.665Z,61.85
2022-11-29T03:26:59.612Z,72.05
2022-11-29T03:29:48.037Z,39.83
2022-11-29T03:32:26.554Z,73.65
2022-11-29T03:35:12.950Z,65.15
2022-11-29T03:37:42.694Z,62.60
2022-11-29T03:40:19.572Z,101.68
2022-11-29T03:42:57.944Z,114.47
2022-11-29T03:45:48.736Z,73.13
2022-11-29T03:48:21.923Z,65.80
2022-11-29T03:51:01.794Z,54.33
2022-11-29T03:53:34.232Z,60.20
2022-11-29T03:56:03.997Z,38.90
2022-11-29T03:59:05.871Z,36.53
2022-11-29T04:02:15.071Z,43.55
2022-11-29T04:05:03.588Z,42.55
2022-11-29T04:07:42.397Z,56.15
2022-11-29T04:10:27.226Z,43.78
2022-11-29T04:13:43.209Z,44.63
2022-11-29T04:16:28.108Z,40.38
2022-11-29T04:19:31.204Z,30.20
2022-11-29T04:22:21.859Z,35.22
2022-11-29T04:25:15.199Z,48.38
2022-11-29T04:28:16.381Z,55.30
2022-11-29T04:31:12.925Z,157.25
2022-11-29T04:33:58.363Z,52.97
2022-11-29T04:36:48.127Z,83.35
2022-11-29T04:39:14.616Z,70.00
2022-11-29T04:42:16.603Z,63.75
2022-11-29T04:45:10.425Z,41.92
2022-11-29T04:47:42.671Z,70.18
2022-11-29T04:50:33.781Z,49.58
2022-11-29T04:53:14.733Z,41.25
2022-11-29T04:55:45.919Z,71.43
2022-11-29T04:58:24.888Z,72.13
2022-11-29T05:01:13.071Z,58.72
2022-11-29T05:03:56.705Z,100.82
2022-11-29T05:06:28.907Z,115.30
2022-11-29T05:09:15.539Z,64.93
2022-11-29T05:11:54.665Z,47.40
2022-11-29T05:15:09.440Z,51.13
2022-11-29T05:17:56.536Z,70.00
2022-11-29T05:20:34.205Z,76.60
2022-11-29T05:23:25.562Z,55.28
2022-11-29T05:26:28.190Z,60.80
2022-11-29T05:29:20.010Z,75.03
2022-11-29T05:32:12.904Z,82.40
2022-11-29T05:34:55.611Z,78.40
2022-11-29T05:37:27.812Z,62.08
2022-11-29T05:40:03.297Z,67.82
2022-11-29T05:42:54.139Z,76.25
2022-11-29T05:45:30.713Z,67.88
2022-11-29T05:48:30.901Z,54.80
2022-11-29T05:51:12.932Z,61.65
2022-11-29T05:54:18.047Z,135.77
2022-11-29T05:57:05.463Z,116.57
2022-11-29T05:59:35.779Z,64.53
2022-11-29T06:02:20.919Z,67.32
2022-11-29T06:05:13.541Z,142.63
2022-11-29T06:07:58.465Z,48.47
2022-11-29T06:10:29.523Z,71.15
2022-11-29T06:13:05.923Z,58.58
2022-11-29T06:15:50.044Z,46.58
2022-11-29T06:18:43.979Z,63.17
2022-11-29T06:21:33.338Z,58.15
2022-11-29T06:24:26.266Z,68.88
2022-11-29T06:27:22.268Z,68.10
2022-11-29T06:30:09.517Z,53.88
2022-11-29T06:32:47.606Z,65.28
2022-11-29T06:35:51.389Z,114.78
2022-11-29T06:38:30.870Z,51.95
2022-11-29T06:41:02.305Z,96.28
2022-11-29T06:43:29.789Z,97.53
2022-11-29T06:46:05.124Z,84.63
2022-11-29T06:48:56.620Z,77.57
2022-11-29T06:51:52.049Z,68.68
2022-11-29T06:55:01.235Z,63.55
2022-11-29T06:57:40.284Z,76.88
2022-11-29T07:00:26.901Z,152.77
2022-11-29T07:03:22.927Z,92.50
2022-11-29T07:05:52.035Z,76.45
2022-11-29T07:08:22.187Z,92.80
2022-11-29T07:10:53.193Z,60.55
2022-11-29T07:13:20.679Z,73.57
2022-11-29T07:16:21.274Z,69.70
2022-11-29T07:19:09.003Z,78.60
2022-11-29T07:21:50.816Z,68.68
2022-11-29T07:24:42.297Z,65.30
2022-11-29T07:27:32.881Z,80.50
2022-11-29T07:30:15.356Z,62.15
2022-11-29T07:33:24.583Z,68.28
2022-11-29T07:36:18.410Z,73.95
2022-11-29T07:39:09.033Z,60.55
2022-11-29T07:42:03.437Z,95.95
2022-11-29T07:44:33.008Z,90.07
2022-11-29T07:46:59.592Z,98.13
2022-11-29T07:49:26.196Z,64.55
2022-11-29T07:51:54.447Z,93.75
2022-11-29T07:54:22.240Z,100.68
2022-11-29T07:56:48.840Z,102.50
2022-11-29T07:59:15.415Z,97.78
2022-11-29T08:01:44.324Z,95.82
2022-11-29T08:04:10.923Z,112.55
2022-11-29T08:06:37.816Z,117.07
2022-11-29T08:09:05.417Z,103.97
2022-11-29T08:11:31.980Z,93.47
2022-11-29T08:14:00.238Z,84.78
2022-11-29T08:16:26.894Z,113.63
2022-11-29T08:18:55.830Z,95.43
2022-11-29T08:21:22.595Z,101.60
2022-11-29T08:23:50.834Z,70.95
2022-11-29T08:26:19.498Z,70.35
2022-11-29T08:28:46.075Z,61.40
2022-11-29T08:31:13.817Z,97.10
2022-11-29T08:33:46.326Z,85.18
2022-11-29T08:36:20.401Z,78.85
2022-11-29T08:38:47.282Z,62.17
2022-11-29T08:41:16.170Z,60.55
2022-11-29T08:43:43.407Z,56.88
2022-11-29T08:46:15.150Z,78.50
2022-11-29T08:48:47.069Z,75.07
2022-11-29T08:51:14.454Z,59.10
2022-11-29T08:53:44.787Z,73.82
2022-11-29T08:57:04.255Z,59.63
2022-11-29T08:59:01.435Z,52.58
2022-11-29T09:01:29.428Z,98.80
2022-11-29T09:03:59.530Z,62.67
2022-11-29T09:06:32.324Z,83.40
2022-11-29T09:09:01.559Z,70.85
2022-11-29T09:11:30.112Z,78.85
2022-11-29T09:13:59.374Z,49.88
2022-11-29T09:16:29.425Z,89.80
2022-11-29T09:18:56.515Z,75.82
2022-11-29T09:21:27.189Z,63.05
2022-11-29T09:23:58.901Z,83.82
2022-11-29T09:26:34.821Z,78.53
2022-11-29T09:29:03.572Z,65.43
2022-11-29T09:31:31.762Z,72.78
2022-11-29T09:33:59.072Z,67.20
2022-11-29T09:36:28.914Z,66.88
2022-11-29T09:38:56.514Z,66.78
2022-11-29T09:41:38.315Z,56.00
2022-11-29T09:44:14.734Z,71.93
2022-11-29T09:46:54.406Z,49.88
2022-11-29T09:50:05.302Z,47.17
2022-11-29T09:52:52.037Z,64.53
2022-11-29T09:55:43.221Z,60.40
2022-11-29T09:58:14.156Z,47.65
2022-11-29T10:00:49.220Z,44.33
2022-11-29T10:03:29.380Z,39.63
2022-11-29T10:06:04.212Z,35.50
2022-11-29T10:08:41.941Z,37.60
2022-11-29T10:11:21.985Z,40.35
2022-11-29T10:13:53.572Z,34.40
2022-11-29T10:16:38.688Z,44.47
2022-11-29T10:19:15.664Z,48.08
2022-11-29T10:22:11.176Z,46.17
2022-11-29T10:24:43.999Z,39.90
2022-11-29T10:27:29.938Z,50.38
2022-11-29T10:30:00.863Z,45.55
2022-11-29T10:32:31.993Z,42.72
2022-11-29T10:35:01.872Z,39.90
2022-11-29T10:37:32.708Z,46.80
2022-11-29T10:40:10.025Z,37.60
2022-11-29T10:42:50.250Z,51.70
2022-11-29T10:45:19.337Z,47.08
2022-11-29T10:47:47.837Z,34.83
2022-11-29T10:50:27.071Z,67.90
2022-11-29T10:53:08.073Z,58.20
2022-11-29T10:55:59.140Z,43.85
2022-11-29T10:58:29.161Z,53.38
2022-11-29T11:01:01.659Z,37.38
2022-11-29T11:03:41.364Z,51.97
2022-11-29T11:06:17.271Z,50.22
2022-11-29T11:08:49.917Z,54.58
2022-11-29T11:11:33.572Z,40.88
2022-11-29T11:14:03.249Z,35.22
2022-11-29T11:16:34.288Z,41.40
2022-11-29T11:19:31.258Z,55.45
2022-11-29T11:22:00.395Z,41.97
2022-11-29T11:24:32.624Z,43.28
2022-11-29T11:27:03.190Z,38.63
2022-11-29T11:29:37.519Z,58.72
2022-11-29T11:32:08.807Z,56.70
2022-11-29T11:34:38.648Z,54.97
2022-11-29T11:37:32.778Z,45.05
2022-11-29T11:40:17.936Z,47.25
2022-11-29T11:42:45.132Z,46.83
2022-11-29T11:45:11.726Z,46.17
2022-11-29T11:47:47.840Z,39.88
2022-11-29T11:50:16.755Z,41.90
2022-11-29T11:53:00.093Z,50.08
2022-11-29T11:55:47.498Z,46.15
2022-11-29T11:58:17.243Z,44.00
2022-11-29T12:01:03.488Z,42.47
2022-11-29T12:03:40.021Z,47.55
2022-11-29T12:06:24.926Z,46.00
2022-11-29T12:08:55.767Z,50.22
2022-11-29T12:11:26.661Z,42.67
2022-11-29T12:13:59.383Z,46.50
2022-11-29T12:16:33.847Z,49.20
2022-11-29T12:19:15.882Z,43.22
2022-11-29T12:21:47.517Z,45.95
2022-11-29T12:24:23.523Z,46.15
2022-11-29T12:26:59.250Z,46.20
2022-11-29T12:29:40.847Z,39.42
2022-11-29T12:32:50.033Z,41.92
2022-11-29T12:35:24.140Z,39.40
2022-11-29T12:38:28.600Z,36.22
2022-11-29T12:41:18.898Z,43.50
2022-11-29T12:47:34.151Z,43.00
2022-11-29T12:53:35.960Z,65.23
2022-11-29T12:56:20.713Z,73.20
2022-11-29T12:59:12.404Z,59.20
2022-11-29T13:01:59.873Z,54.25
2022-11-29T13:04:36.388Z,54.25
2022-11-29T13:07:18.259Z,60.17
2022-11-29T13:10:03.603Z,51.45
2022-11-29T13:12:37.064Z,56.78
2022-11-29T13:15:12.001Z,59.60
2022-11-29T13:17:54.478Z,63.03
2022-11-29T13:20:33.923Z,56.38
2022-11-29T13:23:45.644Z,52.65
2022-11-29T13:26:23.122Z,49.05
2022-11-29T13:28:50.894Z,57.92
2022-11-29T13:31:20.470Z,54.38
2022-11-29T13:34:04.481Z,54.42
2022-11-29T13:36:52.474Z,53.85
2022-11-29T13:39:41.040Z,49.80
2022-11-29T13:42:17.737Z,51.05
2022-11-29T13:45:21.470Z,50.78
2022-11-29T13:47:59.805Z,44.55
2022-11-29T13:50:44.734Z,47.70
2022-11-29T13:53:17.478Z,52.40
2022-11-29T13:55:46.698Z,66.22
2022-11-29T13:58:18.152Z,57.45
2022-11-29T14:00:45.039Z,56.47
2022-11-29T14:03:23.563Z,49.55
2022-11-29T14:05:53.288Z,44.63
2022-11-29T14:09:18.326Z,45.72
2022-11-29T14:11:35.504Z,50.67
2022-11-29T14:14:08.116Z,48.17
2022-11-29T14:16:43.933Z,48.78
2022-11-29T14:19:10.581Z,50.08
2022-11-29T14:21:56.065Z,52.17
2022-11-29T14:24:38.169Z,47.38
2022-11-29T14:27:07.978Z,42.28
2022-11-29T14:29:49.803Z,47.85
2022-11-29T14:32:25.343Z,53.45
2022-11-29T14:34:57.953Z,44.20
2022-11-29T14:37:39.870Z,44.53
2022-11-29T14:40:27.381Z,45.67
2022-11-29T14:42:54.270Z,48.47
2022-11-29T14:45:28.187Z,54.17
2022-11-29T14:47:55.532Z,50.87
2022-11-29T14:50:40.301Z,60.97
2022-11-29T14:53:26.687Z,47.90
2022-11-29T14:56:31.734Z,46.15
2022-11-29T14:59:35.937Z,47.67
2022-11-29T15:02:16.557Z,46.72
2022-11-29T15:04:44.254Z,50.17
2022-11-29T15:07:20.215Z,59.90
2022-11-29T15:09:50.516Z,61.22
2022-11-29T15:12:20.638Z,43.25
2022-11-29T15:14:47.533Z,47.78
2022-11-29T15:17:37.550Z,40.63
2022-11-29T15:20:42.232Z,49.55
2022-11-29T15:23:15.177Z,48.70
2022-11-29T15:25:50.107Z,48.10
2022-11-29T15:28:25.749Z,50.08
2022-11-29T15:31:10.811Z,49.70
2022-11-29T15:33:41.571Z,48.97
2022-11-29T15:36:13.229Z,49.85
2022-11-29T15:38:45.388Z,47.47
2022-11-29T15:41:32.711Z,41.83
2022-11-29T15:44:02.393Z,54.58
2022-11-29T15:46:35.367Z,46.95
2022-11-29T15:49:37.627Z,49.28
2022-11-29T15:52:14.447Z,55.10
2022-11-29T15:54:51.425Z,45.70
2022-11-29T15:57:34.876Z,47.85
2022-11-29T16:00:05.525Z,43.42
2022-11-29T16:02:40.178Z,44.95
2022-11-29T16:05:18.813Z,49.83
2022-11-29T16:07:47.941Z,44.75
2022-11-29T16:10:20.946Z,46.15
2022-11-29T16:12:55.878Z,43.58
2022-11-29T16:15:30.231Z,38.75
2022-11-29T16:18:03.493Z,45.05
2022-11-29T16:20:33.259Z,41.28
2022-11-29T16:23:11.591Z,47.67
2022-11-29T16:26:13.352Z,42.90
2022-11-29T16:28:48.616Z,48.45
2022-11-29T16:31:23.916Z,44.42
2022-11-29T16:33:52.624Z,44.83
2022-11-29T16:36:24.181Z,45.55
2022-11-29T16:38:59.405Z,41.90
2022-11-29T16:41:37.894Z,43.03
2022-11-29T16:44:06.745Z,47.67
2022-11-29T16:46:38.663Z,45.00
2022-11-29T16:49:33.800Z,47.28
2022-11-29T16:52:01.413Z,49.17
2022-11-29T16:54:38.074Z,46.75
2022-11-29T16:57:06.996Z,42.88
2022-11-29T16:59:36.008Z,47.75
2022-11-29T17:02:06.787Z,48.25
2022-11-29T17:04:33.495Z,44.60
2022-11-29T17:07:00.505Z,49.47
2022-11-29T17:09:30.839Z,52.17
2022-11-29T17:12:00.105Z,49.17
2022-11-29T17:14:27.639Z,51.38
2022-11-29T17:16:55.357Z,47.55
2022-11-29T17:19:23.836Z,43.17
2022-11-29T17:21:52.059Z,43.83
2022-11-29T17:24:23.146Z,41.22
2022-11-29T17:26:50.582Z,52.47
2022-11-29T17:29:18.659Z,48.45
2022-11-29T17:31:48.315Z,49.22
2022-11-29T17:34:15.149Z,44.53
2022-11-29T17:36:42.404Z,48.13
2022-11-29T17:39:09.190Z,43.65
2022-11-29T17:41:35.790Z,46.90
2022-11-29T17:44:02.859Z,47.00
2022-11-29T17:46:32.843Z,52.97
2022-11-29T17:49:01.282Z,55.42
2022-11-29T17:51:51.126Z,49.38
2022-11-29T17:54:14.902Z,55.70
2022-11-29T17:56:41.573Z,50.90
2022-11-29T17:59:08.209Z,55.42
2022-11-29T18:01:36.335Z,45.88
2022-11-29T18:04:05.624Z,56.08
2022-11-29T18:06:40.289Z,49.83
2022-11-29T18:11:52.212Z,49.67
2022-11-29T18:14:24.210Z,54.25
2022-11-29T18:16:52.072Z,60.42
2022-11-29T18:19:21.138Z,53.45
2022-11-29T18:21:49.343Z,83.70
2022-11-29T18:24:15.894Z,103.22
2022-11-29T18:26:42.965Z,67.63
2022-11-29T18:29:09.813Z,76.72
2022-11-29T18:31:39.307Z,98.03
2022-11-29T18:34:09.825Z,87.15
2022-11-29T18:36:47.990Z,118.22
2022-11-29T18:39:18.156Z,94.30
2022-11-29T18:41:47.204Z,100.00
2022-11-29T18:44:16.034Z,140.32
2022-11-29T18:46:44.201Z,78.30
2022-11-29T18:49:13.919Z,65.22
2022-11-29T18:51:44.943Z,49.38
2022-11-29T18:54:12.332Z,97.88
2022-11-29T18:56:38.995Z,107.07
2022-11-29T18:59:10.499Z,110.03
2022-11-29T19:01:41.424Z,104.20
2022-11-29T19:04:13.855Z,102.85
2022-11-29T19:06:41.710Z,83.00
2022-11-29T19:09:13.301Z,49.97
2022-11-29T19:11:42.608Z,74.75
2022-11-29T19:14:12.817Z,57.20
2022-11-29T19:16:45.316Z,64.03
2022-11-29T19:19:12.741Z,50.30
2022-11-29T19:21:40.666Z,97.78
2022-11-29T19:24:13.898Z,69.47
2022-11-29T19:26:44.923Z,60.28
2022-11-29T19:29:12.426Z,64.72
2022-11-29T19:31:39.613Z,53.97
2022-11-29T19:34:06.671Z,72.63
2022-11-29T19:36:33.726Z,86.65
2022-11-29T19:39:02.384Z,68.82
2022-11-29T19:41:33.727Z,58.13
2022-11-29T19:44:03.568Z,63.17
2022-11-29T19:46:33.996Z,59.75
2022-11-29T19:49:01.365Z,58.05
2022-11-29T19:51:29.867Z,62.55
2022-11-29T19:54:00.374Z,55.75
2022-11-29T19:56:28.170Z,52.95
2022-11-29T19:58:55.505Z,54.33
2022-11-29T20:01:37.781Z,56.97
2022-11-29T20:04:06.923Z,64.90
2022-11-29T20:06:33.553Z,56.22
2022-11-29T20:09:00.270Z,53.70
2022-11-29T20:11:27.103Z,51.20
2022-11-29T20:13:56.808Z,68.95
2022-11-29T20:16:24.799Z,62.40
2022-11-29T20:18:53.352Z,57.10
2022-11-29T20:21:31.258Z,59.90
2022-11-29T20:24:03.401Z,52.75
2022-11-29T20:26:35.162Z,51.72
2022-11-29T20:29:02.347Z,52.67
2022-11-29T20:31:30.117Z,51.85
2022-11-29T20:34:00.717Z,49.45
2022-11-29T20:37:08.743Z,58.17
2022-11-29T20:39:54.798Z,56.63
2022-11-29T20:42:36.945Z,54.15
2022-11-29T20:45:09.193Z,59.25
2022-11-29T20:47:51.549Z,57.30
2022-11-29T20:50:24.478Z,46.80
2022-11-29T20:53:15.813Z,54.13
2022-11-29T20:55:47.946Z,58.97
2022-11-29T20:58:19.529Z,64.10
2022-11-29T21:00:46.650Z,67.47
2022-11-29T21:03:14.769Z,64.68
2022-11-29T21:05:41.758Z,82.25
2022-11-29T21:08:10.627Z,67.53
2022-11-29T21:10:37.559Z,60.55
2022-11-29T21:13:04.556Z,70.50
2022-11-29T21:15:31.739Z,64.63
2022-11-29T21:17:58.860Z,63.67
2022-11-29T21:20:28.201Z,70.65
2022-11-29T21:23:02.084Z,67.93
2022-11-29T21:25:47.539Z,63.70
2022-11-29T21:28:24.095Z,68.32
2022-11-29T21:30:52.877Z,59.58
2022-11-29T21:33:19.797Z,53.58
2022-11-29T21:35:57.924Z,59.75
2022-11-29T21:38:26.171Z,55.33
2022-11-29T21:40:55.404Z,66.03
2022-11-29T21:43:28.709Z,58.55
2022-11-29T21:46:08.859Z,60.53
2022-11-29T21:48:35.481Z,63.53
2022-11-29T21:51:05.577Z,63.67
2022-11-29T21:53:33.401Z,53.40
2022-11-29T21:56:01.983Z,54.63
2022-11-29T21:58:30.809Z,57.53
2022-11-29T22:01:05.168Z,51.72
2022-11-29T22:03:32.010Z,53.70
2022-11-29T22:06:11.263Z,57.10
2022-11-29T22:08:39.928Z,52.42
2022-11-29T22:11:13.410Z,53.90
2022-11-29T22:14:01.441Z,56.40
2022-11-29T22:16:29.744Z,44.13
2022-11-29T22:18:56.422Z,51.78
2022-11-29T22:21:26.168Z,49.05
2022-11-29T22:23:55.270Z,42.45
2022-11-29T22:26:23.412Z,40.28
2022-11-29T22:28:50.192Z,45.70
2022-11-29T22:31:16.821Z,48.60
2022-11-29T22:33:43.426Z,36.97
2022-11-29T22:36:13.038Z,38.90
2022-11-29T22:38:41.814Z,33.33
2022-11-29T22:41:12.974Z,37.22
2022-11-29T22:43:41.256Z,38.40
2022-11-29T22:46:09.705Z,37.03
2022-11-29T22:48:39.075Z,28.35
2022-11-29T22:51:07.610Z,34.35
2022-11-29T22:53:36.176Z,34.45
2022-11-29T22:56:04.979Z,36.33
2022-11-29T22:58:32.178Z,35.53
2022-11-29T23:01:14.625Z,39.47
2022-11-29T23:03:51.995Z,36.17
2022-11-29T23:06:24.660Z,38.03
2022-11-29T23:08:53.072Z,44.20
2022-11-29T23:11:22.546Z,43.53
2022-11-29T23:13:49.897Z,38.65
2022-11-29T23:16:19.605Z,36.13
2022-11-29T23:18:46.960Z,34.40
2022-11-29T23:21:22.496Z,35.13
2022-11-29T23:23:55.792Z,33.72
2022-11-29T23:26:34.148Z,35.17
2022-11-29T23:29:00.732Z,39.63
2022-11-29T23:31:29.664Z,31.75
2022-11-29T23:33:56.743Z,33.58
2022-11-29T23:36:23.295Z,32.88
2022-11-29T23:38:49.993Z,30.63
2022-11-29T23:41:19.292Z,30.90
2022-11-29T23:43:46.536Z,28.33
2022-11-29T23:46:19.170Z,33.38
2022-11-29T23:48:47.447Z,26.00
2022-11-29T23:51:14.957Z,32.25
2022-11-29T23:53:46.511Z,32.50
2022-11-29T23:56:15.510Z,28.90
2022-11-29T23:58:43.261Z,31.88
